Time;durP1;ratioP1;P1;durP2;ratioP2;P2;SDS_P1;SDS_P2;PMS_P1;PMS_P2;Temp;Humidity;BMP_temperature;BMP_pressure;BME280_temperature;BME280_humidity;BME280_pressure;Samples;Min_cycle;Max_cycle;Signal;HPM_P1;HPM_P2
2024/04/17 00:02:29;;;;;;;10.90;5.40;;;6.30;99.90;;;;;;5299966;26;20510;-73
2024/04/17 00:04:54;;;;;;;12.37;6.90;;;6.30;99.90;;;;;;5229340;27;20466;-72
2024/04/17 00:07:20;;;;;;;17.33;7.17;;;6.20;99.90;;;;;;5206210;27;21055;-73
2024/04/17 00:09:45;;;;;;;15.00;7.43;;;6.20;99.90;;;;;;5232568;27;20509;-73
2024/04/17 00:12:11;;;;;;;13.67;7.20;;;6.20;99.90;;;;;;5228975;27;20300;-72
2024/04/17 00:14:36;;;;;;;11.87;5.60;;;6.20;99.90;;;;;;5226579;27;20303;-71
2024/04/17 00:17:02;;;;;;;9.07;5.40;;;6.20;99.90;;;;;;5175017;27;20277;-73
2024/04/17 00:19:28;;;;;;;14.03;4.60;;;6.20;99.90;;;;;;5194638;27;20303;-72
2024/04/17 00:21:53;;;;;;;11.27;5.00;;;6.20;99.90;;;;;;5192424;27;20229;-72
2024/04/17 00:24:19;;;;;;;12.83;5.17;;;6.10;99.90;;;;;;5197789;27;20585;-74
2024/04/17 00:26:44;;;;;;;7.80;5.30;;;6.10;99.90;;;;;;5200201;27;20272;-72
2024/04/17 00:29:10;;;;;;;10.87;5.97;;;6.10;99.90;;;;;;5200863;27;20226;-71
2024/04/17 00:31:36;;;;;;;7.77;4.87;;;6.00;99.90;;;;;;5157000;27;20284;-71
2024/04/17 00:34:02;;;;;;;6.47;4.30;;;6.00;99.90;;;;;;5195868;27;20230;-71
2024/04/17 00:36:28;;;;;;;7.87;3.90;;;5.90;99.90;;;;;;5202850;27;20944;-72
2024/04/17 00:38:53;;;;;;;7.57;4.20;;;5.90;99.90;;;;;;5186308;27;20785;-71
2024/04/17 00:41:19;;;;;;;9.73;4.70;;;5.80;99.90;;;;;;5142817;27;20230;-72
2024/04/17 00:43:45;;;;;;;9.73;4.20;;;5.70;99.90;;;;;;5172834;27;20225;-73
2024/04/17 00:46:11;;;;;;;10.13;4.20;;;5.60;99.90;;;;;;5204214;27;20237;-72
2024/04/17 00:48:37;;;;;;;4.60;3.03;;;5.60;99.90;;;;;;5200474;27;20463;-73
2024/04/17 00:51:04;;;;;;;6.90;3.57;;;5.50;99.90;;;;;;5165832;27;20479;-71
2024/04/17 00:53:32;;;;;;;5.13;3.33;;;5.40;99.90;;;;;;5188776;27;20518;-73
2024/04/17 00:55:59;;;;;;;7.07;3.60;;;5.30;99.90;;;;;;5184818;27;20934;-73
2024/04/17 00:58:25;;;;;;;4.80;3.50;;;5.30;99.90;;;;;;5184626;27;21001;-72
2024/04/17 01:00:51;;;;;;;8.00;3.30;;;5.20;99.90;;;;;;5164779;27;20490;-73
2024/04/17 01:03:16;;;;;;;6.60;2.87;;;5.20;99.90;;;;;;5203366;27;20528;-71
2024/04/17 01:05:42;;;;;;;4.90;2.83;;;5.10;99.90;;;;;;5195800;27;20227;-72
2024/04/17 01:08:08;;;;;;;5.07;2.90;;;5.10;99.90;;;;;;5198990;27;20281;-73
2024/04/17 01:10:34;;;;;;;3.93;2.90;;;5.00;99.90;;;;;;5198388;27;20474;-73
2024/04/17 01:13:00;;;;;;;3.67;2.67;;;4.90;99.90;;;;;;5167234;27;20566;-72
2024/04/17 01:15:26;;;;;;;3.70;2.30;;;4.90;99.90;;;;;;5211565;27;20489;-74
2024/04/17 01:17:52;;;;;;;5.07;2.40;;;4.90;99.90;;;;;;5225183;27;20480;-73
2024/04/17 01:20:18;;;;;;;5.27;2.80;;;4.80;99.90;;;;;;5195567;27;20233;-72
2024/04/17 01:22:43;;;;;;;4.00;2.20;;;4.80;99.90;;;;;;5238409;27;20758;-72
2024/04/17 01:25:09;;;;;;;2.73;1.77;;;4.80;99.90;;;;;;5221379;27;20508;-71
2024/04/17 01:27:34;;;;;;;3.97;2.60;;;4.80;99.90;;;;;;5214893;27;20285;-73
2024/04/17 01:30:00;;;;;;;5.03;2.00;;;4.70;99.90;;;;;;5231117;27;20234;-71
2024/04/17 01:32:25;;;;;;;2.80;1.87;;;4.70;99.90;;;;;;5238255;27;20251;-71
2024/04/17 01:34:51;;;;;;;5.17;2.30;;;4.60;99.90;;;;;;5219022;27;20224;-72
2024/04/17 01:37:17;;;;;;;2.30;1.97;;;4.60;99.90;;;;;;5214154;27;20231;-71
2024/04/17 01:39:42;;;;;;;2.90;1.87;;;4.60;99.90;;;;;;5222379;27;20237;-70
2024/04/17 01:42:08;;;;;;;5.50;2.67;;;4.60;99.90;;;;;;5231765;27;20621;-72
2024/04/17 01:44:33;;;;;;;3.37;2.00;;;4.50;99.90;;;;;;5199799;27;20242;-72
2024/04/17 01:46:59;;;;;;;4.50;2.97;;;4.50;99.90;;;;;;5224375;27;20230;-70
2024/04/17 01:49:25;;;;;;;7.33;3.00;;;4.50;99.90;;;;;;5235895;27;20233;-71
2024/04/17 01:51:50;;;;;;;7.80;3.07;;;4.50;99.90;;;;;;5233136;27;20336;-73
2024/04/17 01:54:16;;;;;;;6.03;2.77;;;4.50;99.90;;;;;;5190006;27;20527;-72
2024/04/17 01:56:42;;;;;;;3.40;2.23;;;4.50;99.90;;;;;;5215092;27;20234;-73
2024/04/17 01:59:07;;;;;;;3.83;1.60;;;4.40;99.90;;;;;;5221223;27;20237;-71
2024/04/17 02:01:34;;;;;;;2.30;1.77;;;4.40;99.90;;;;;;5237897;27;20304;-73
2024/04/17 02:04:00;;;;;;;3.50;2.20;;;4.40;99.90;;;;;;5238000;27;20225;-71
2024/04/17 02:06:25;;;;;;;3.43;1.87;;;4.30;99.90;;;;;;5247428;27;20528;-72
2024/04/17 02:08:51;;;;;;;4.30;1.93;;;4.30;99.90;;;;;;5236856;27;20268;-72
2024/04/17 02:11:16;;;;;;;3.10;1.70;;;4.20;99.90;;;;;;5211497;27;20263;-72
2024/04/17 02:13:42;;;;;;;2.93;1.60;;;4.20;99.90;;;;;;5240338;27;20280;-72
2024/04/17 02:16:08;;;;;;;2.60;1.23;;;4.20;99.90;;;;;;5239129;27;20289;-72
2024/04/17 02:18:34;;;;;;;2.93;1.57;;;4.10;99.90;;;;;;5215023;27;20245;-72
2024/04/17 02:21:01;;;;;;;3.60;1.93;;;4.10;99.90;;;;;;5241465;27;20515;-73
2024/04/17 02:23:28;;;;;;;2.63;1.30;;;4.10;99.90;;;;;;5221479;27;20860;-71
2024/04/17 02:25:54;;;;;;;4.07;2.33;;;4.10;99.90;;;;;;5221003;27;20491;-72
2024/04/17 02:28:20;;;;;;;4.00;2.10;;;4.10;99.90;;;;;;5225348;27;20524;-73
2024/04/17 02:30:45;;;;;;;3.73;1.60;;;4.10;99.90;;;;;;5199113;27;20933;-73
2024/04/17 02:33:11;;;;;;;3.53;2.00;;;4.10;99.90;;;;;;5195431;27;20308;-71
2024/04/17 02:35:36;;;;;;;3.60;2.00;;;4.00;99.90;;;;;;5233150;27;20323;-72
2024/04/17 02:38:02;;;;;;;5.77;2.17;;;4.00;99.90;;;;;;5224331;27;20554;-72
2024/04/17 02:40:28;;;;;;;6.47;2.93;;;4.00;99.90;;;;;;5227638;27;20701;-73
2024/04/17 02:42:53;;;;;;;3.33;2.10;;;4.00;99.90;;;;;;5234706;27;20279;-72
2024/04/17 02:45:19;;;;;;;3.73;2.03;;;3.90;99.90;;;;;;5227121;27;20283;-70
2024/04/17 02:47:44;;;;;;;4.27;1.70;;;4.00;99.90;;;;;;5242771;27;20236;-72
2024/04/17 02:50:10;;;;;;;3.43;1.70;;;3.90;99.90;;;;;;5226955;27;20238;-72
2024/04/17 02:52:35;;;;;;;3.17;1.70;;;3.90;99.90;;;;;;5227994;27;20272;-71
2024/04/17 02:55:02;;;;;;;3.70;1.50;;;3.90;99.90;;;;;;5226192;27;20510;-71
2024/04/17 02:57:28;;;;;;;3.60;1.60;;;3.80;99.90;;;;;;5238970;27;20331;-71
2024/04/17 02:59:54;;;;;;;1.73;1.10;;;3.80;99.90;;;;;;5212411;27;20531;-71
2024/04/17 03:02:19;;;;;;;3.57;1.80;;;3.70;99.90;;;;;;5234589;27;20966;-72
2024/04/17 03:04:45;;;;;;;3.03;1.87;;;3.70;99.90;;;;;;5242279;27;20304;-72
2024/04/17 03:07:12;;;;;;;5.53;1.87;;;3.70;99.90;;;;;;5244670;27;20284;-71
2024/04/17 03:09:37;;;;;;;2.90;1.50;;;3.70;99.90;;;;;;5230789;27;20272;-71
2024/04/17 03:12:03;;;;;;;2.23;1.10;;;3.70;99.90;;;;;;5207449;27;20476;-72
2024/04/17 03:14:29;;;;;;;2.47;1.47;;;3.70;99.90;;;;;;5237815;27;20276;-71
2024/04/17 03:16:54;;;;;;;4.53;2.10;;;3.60;99.90;;;;;;5226390;27;20244;-73
2024/04/17 03:19:20;;;;;;;3.40;1.50;;;3.70;99.90;;;;;;5233785;27;20230;-70
2024/04/17 03:21:46;;;;;;;3.40;1.53;;;3.70;99.90;;;;;;5223340;27;20336;-72
2024/04/17 03:24:11;;;;;;;2.70;1.70;;;3.70;99.90;;;;;;5232077;27;20348;-72
2024/04/17 03:26:37;;;;;;;3.60;1.90;;;3.70;99.90;;;;;;5218468;27;20305;-72
2024/04/17 03:29:02;;;;;;;6.80;2.67;;;3.70;99.90;;;;;;5227877;27;20227;-72
2024/04/17 03:31:28;;;;;;;4.37;2.40;;;3.70;99.90;;;;;;5227681;27;20356;-72
2024/04/17 03:33:53;;;;;;;4.33;2.40;;;3.70;99.90;;;;;;5188892;27;20224;-72
2024/04/17 03:36:19;;;;;;;3.63;2.13;;;3.60;99.90;;;;;;5205750;27;20276;-72
2024/04/17 03:38:45;;;;;;;3.13;1.80;;;3.60;99.90;;;;;;5234037;27;20229;-72
2024/04/17 03:41:10;;;;;;;3.93;2.50;;;3.60;99.90;;;;;;5201921;27;20230;-72
2024/04/17 03:43:36;;;;;;;4.17;2.47;;;3.50;99.90;;;;;;5238908;27;20233;-71
2024/04/17 03:46:03;;;;;;;3.80;2.00;;;3.50;99.90;;;;;;5230674;27;20571;-74
2024/04/17 03:48:29;;;;;;;5.20;2.13;;;3.50;99.90;;;;;;5228892;27;20246;-73
2024/04/17 03:50:54;;;;;;;3.50;2.63;;;3.50;99.90;;;;;;5227368;27;20468;-73
2024/04/17 03:53:20;;;;;;;3.40;2.00;;;3.40;99.90;;;;;;5225355;27;20241;-72
2024/04/17 03:55:46;;;;;;;2.73;1.40;;;3.40;99.90;;;;;;5228230;27;20259;-72
2024/04/17 03:58:12;;;;;;;5.17;2.07;;;3.40;99.90;;;;;;5228490;27;20493;-74
2024/04/17 04:00:37;;;;;;;7.47;3.00;;;3.40;99.90;;;;;;5232262;27;20246;-71
2024/04/17 04:03:03;;;;;;;4.00;2.43;;;3.50;99.90;;;;;;5203247;27;20281;-71
2024/04/17 04:05:28;;;;;;;4.37;2.50;;;3.50;99.90;;;;;;5205910;27;20278;-71
2024/04/17 04:07:54;;;;;;;6.57;3.13;;;3.50;99.90;;;;;;5236013;27;20324;-72
2024/04/17 04:10:19;;;;;;;5.97;3.20;;;3.50;99.90;;;;;;5227913;27;20280;-72
2024/04/17 04:12:45;;;;;;;5.73;2.90;;;3.50;99.90;;;;;;5236679;27;20236;-72
2024/04/17 04:15:11;;;;;;;6.80;3.20;;;3.50;99.90;;;;;;5225887;27;20245;-72
2024/04/17 04:17:36;;;;;;;6.07;3.20;;;3.50;99.90;;;;;;5224607;27;20353;-72
2024/04/17 04:20:02;;;;;;;7.80;3.43;;;3.50;99.90;;;;;;5223455;27;20597;-72
2024/04/17 04:22:28;;;;;;;7.53;3.40;;;3.50;99.90;;;;;;5231150;27;20230;-74
2024/04/17 04:24:53;;;;;;;8.00;3.07;;;3.40;99.90;;;;;;5218275;27;20465;-72
2024/04/17 04:27:19;;;;;;;8.10;3.30;;;3.40;99.90;;;;;;5230888;27;20558;-73
2024/04/17 04:29:45;;;;;;;4.60;2.47;;;3.40;99.90;;;;;;5233680;27;20330;-73
2024/04/17 04:32:10;;;;;;;4.10;2.30;;;3.30;99.90;;;;;;5228757;27;20279;-72
2024/04/17 04:34:36;;;;;;;5.07;2.60;;;3.30;99.90;;;;;;5237148;27;20889;-71
2024/04/17 04:37:01;;;;;;;4.20;2.10;;;3.30;99.90;;;;;;5229945;27;20498;-72
2024/04/17 04:39:27;;;;;;;3.97;2.03;;;3.30;99.90;;;;;;5213413;27;20357;-72
2024/04/17 04:41:53;;;;;;;5.10;2.33;;;3.30;99.90;;;;;;5200771;27;20224;-72
2024/04/17 04:44:19;;;;;;;4.10;2.10;;;3.40;99.90;;;;;;5226385;27;20229;-74
2024/04/17 04:46:45;;;;;;;6.53;2.50;;;3.40;99.90;;;;;;5223198;27;20944;-72
2024/04/17 04:49:11;;;;;;;3.47;2.57;;;3.50;99.90;;;;;;5228235;27;20469;-74
2024/04/17 04:51:37;;;;;;;4.23;2.40;;;3.50;99.90;;;;;;5232761;27;20587;-75
2024/04/17 04:54:02;;;;;;;5.10;2.77;;;3.50;99.90;;;;;;5221124;27;20272;-71
2024/04/17 04:56:28;;;;;;;5.90;3.17;;;3.60;99.90;;;;;;5225048;27;20245;-72
2024/04/17 04:58:54;;;;;;;7.13;2.90;;;3.60;99.90;;;;;;5197723;27;20353;-74
2024/04/17 05:01:20;;;;;;;8.93;3.30;;;3.70;99.90;;;;;;5230381;27;20539;-72
2024/04/17 05:03:45;;;;;;;6.17;3.20;;;3.70;99.90;;;;;;5238190;27;20466;-73
2024/04/17 05:06:11;;;;;;;10.30;4.30;;;3.70;99.90;;;;;;5207386;27;20563;-75
2024/04/17 05:08:36;;;;;;;7.13;3.90;;;3.80;99.90;;;;;;5202061;27;20234;-73
2024/04/17 05:11:02;;;;;;;11.80;4.30;;;3.80;99.90;;;;;;5238816;27;20224;-73
2024/04/17 05:13:28;;;;;;;7.53;3.57;;;3.80;99.90;;;;;;5229466;27;20224;-74
2024/04/17 05:15:53;;;;;;;5.93;3.27;;;3.90;99.90;;;;;;5244246;27;20267;-74
2024/04/17 05:18:19;;;;;;;4.90;3.00;;;3.90;99.90;;;;;;5236193;27;20220;-73
2024/04/17 05:20:45;;;;;;;5.03;2.90;;;4.00;99.90;;;;;;5207890;27;20236;-75
2024/04/17 05:23:11;;;;;;;8.53;2.67;;;4.10;99.90;;;;;;5221381;27;20229;-74
2024/04/17 05:25:37;;;;;;;5.70;2.57;;;4.20;99.90;;;;;;5207767;27;20493;-75
2024/04/17 05:28:03;;;;;;;11.63;4.10;;;4.20;99.90;;;;;;5213831;27;20229;-75
2024/04/17 05:30:28;;;;;;;12.33;4.80;;;4.30;99.90;;;;;;5229080;27;20523;-75
2024/04/17 05:32:54;;;;;;;17.47;6.37;;;4.30;99.90;;;;;;5245901;27;20233;-75
2024/04/17 05:35:20;;;;;;;18.27;6.70;;;4.30;99.90;;;;;;5216027;27;20553;-76
2024/04/17 05:37:45;;;;;;;24.97;8.97;;;4.30;99.90;;;;;;5219516;27;20233;-75
2024/04/17 05:40:11;;;;;;;20.57;8.23;;;4.30;99.90;;;;;;5208565;27;20241;-74
2024/04/17 05:42:37;;;;;;;25.53;9.90;;;4.30;99.90;;;;;;5174649;27;20646;-76
2024/04/17 05:45:03;;;;;;;29.57;10.20;;;4.30;99.90;;;;;;5203468;27;20296;-73
2024/04/17 05:47:29;;;;;;;41.90;13.87;;;4.30;99.90;;;;;;5172476;27;20313;-77
2024/04/17 05:49:55;;;;;;;34.20;12.70;;;4.40;99.90;;;;;;5242314;27;20470;-72
2024/04/17 05:52:20;;;;;;;34.77;14.20;;;4.40;99.90;;;;;;5207427;27;20464;-74
2024/04/17 05:54:46;;;;;;;36.70;13.80;;;4.50;99.90;;;;;;5252819;27;20225;-74
2024/04/17 05:57:12;;;;;;;28.77;12.60;;;4.60;99.90;;;;;;5250805;27;20401;-76
2024/04/17 05:59:37;;;;;;;42.77;14.27;;;4.60;99.90;;;;;;5253283;27;20229;-76
2024/04/17 06:02:03;;;;;;;48.43;17.73;;;4.60;99.90;;;;;;5207857;27;20313;-77
2024/04/17 06:04:29;;;;;;;66.80;22.67;;;4.60;99.90;;;;;;5194076;27;20336;-77
2024/04/17 06:06:56;;;;;;;54.40;18.50;;;4.60;99.90;;;;;;5209229;27;20234;-73
2024/04/17 06:09:21;;;;;;;55.70;19.87;;;4.60;99.90;;;;;;5239333;27;20517;-75
2024/04/17 06:11:47;;;;;;;56.53;21.60;;;4.60;99.90;;;;;;5237228;27;20469;-74
2024/04/17 06:14:13;;;;;;;52.73;18.37;;;4.60;99.90;;;;;;5215229;27;20225;-73
2024/04/17 06:16:38;;;;;;;72.70;23.47;;;4.60;99.90;;;;;;5254180;27;20335;-75
2024/04/17 06:19:04;;;;;;;73.03;21.80;;;4.70;99.90;;;;;;5215117;27;20640;-74
2024/04/17 06:21:30;;;;;;;63.13;22.00;;;4.80;99.90;;;;;;5215951;27;20276;-75
2024/04/17 06:23:55;;;;;;;46.97;17.20;;;4.80;99.90;;;;;;5256304;27;20266;-74
2024/04/17 06:26:21;;;;;;;58.80;18.87;;;4.90;99.90;;;;;;5263273;27;20241;-74
2024/04/17 06:28:46;;;;;;;62.50;23.33;;;5.10;99.90;;;;;;5221684;27;20230;-74
2024/04/17 06:31:12;;;;;;;55.50;18.47;;;5.10;99.90;;;;;;5257242;27;20307;-74
2024/04/17 06:33:38;;;;;;;60.37;18.43;;;5.30;99.90;;;;;;5255776;27;20616;-73
2024/04/17 06:36:04;;;;;;;76.97;23.90;;;5.40;99.90;;;;;;5230617;27;20224;-76
2024/04/17 06:38:29;;;;;;;58.17;20.63;;;5.40;99.90;;;;;;5255844;27;20275;-76
2024/04/17 06:40:57;;;;;;;78.87;24.10;;;5.50;99.90;;;;;;5188542;27;20316;-76
2024/04/17 06:43:23;;;;;;;62.13;22.60;;;5.40;99.90;;;;;;5255309;27;20315;-76
2024/04/17 06:45:49;;;;;;;70.53;25.03;;;5.30;99.90;;;;;;5219466;27;20472;-76
2024/04/17 06:48:15;;;;;;;82.37;23.93;;;5.30;99.90;;;;;;5201792;27;20233;-78
2024/04/17 06:50:40;;;;;;;79.73;25.40;;;5.40;99.90;;;;;;5224967;27;20225;-77
2024/04/17 06:53:06;;;;;;;80.17;24.03;;;5.40;99.90;;;;;;5200570;27;20262;-73
2024/04/17 06:55:32;;;;;;;61.97;24.20;;;5.50;99.90;;;;;;5226368;27;20225;-76
2024/04/17 06:57:58;;;;;;;65.13;21.97;;;5.60;99.90;;;;;;5257929;27;20579;-76
2024/04/17 07:00:33;;;;;;;39.30;19.37;;;5.60;99.90;;;;;;5226769;27;20225;-77
2024/04/17 07:02:59;;;;;;;72.13;22.63;;;5.70;99.90;;;;;;5221724;27;20305;-76
2024/04/17 07:05:26;;;;;;;58.73;20.37;;;5.80;99.90;;;;;;5215597;27;20555;-74
2024/04/17 07:07:52;;;;;;;55.23;22.30;;;5.80;99.90;;;;;;5226261;27;20465;-76
2024/04/17 07:10:18;;;;;;;57.00;20.60;;;5.80;99.90;;;;;;5254358;27;20565;-74
2024/04/17 07:12:43;;;;;;;52.70;18.20;;;5.80;99.90;;;;;;5206755;27;20244;-76
2024/04/17 07:15:09;;;;;;;49.27;18.60;;;5.80;99.90;;;;;;5215356;27;20610;-75
2024/04/17 07:17:35;;;;;;;43.90;17.50;;;5.80;99.90;;;;;;5173631;27;20621;-74
2024/04/17 07:20:01;;;;;;;43.10;18.60;;;5.80;99.90;;;;;;5243552;27;20221;-74
2024/04/17 07:22:26;;;;;;;62.30;23.90;;;5.60;99.90;;;;;;5201407;27;20259;-76
2024/04/17 07:24:52;;;;;;;49.00;21.03;;;5.60;99.90;;;;;;5175237;27;20477;-75
2024/04/17 07:27:18;;;;;;;55.40;24.20;;;5.50;99.90;;;;;;5236749;27;21329;-75
2024/04/17 07:29:43;;;;;;;53.17;24.40;;;5.40;99.90;;;;;;5194568;27;20222;-76
2024/04/17 07:32:09;;;;;;;50.47;22.20;;;5.40;99.90;;;;;;5199239;27;20232;-77
2024/04/17 07:34:35;;;;;;;52.27;21.47;;;5.50;99.90;;;;;;5168855;27;20234;-76
2024/04/17 07:37:00;;;;;;;70.97;25.97;;;5.60;99.90;;;;;;5199050;27;20234;-77
2024/04/17 07:39:26;;;;;;;49.83;23.90;;;5.70;99.90;;;;;;5210885;27;20255;-75
2024/04/17 07:41:52;;;;;;;45.80;23.47;;;5.70;99.90;;;;;;5194645;27;20557;-75
2024/04/17 07:44:17;;;;;;;48.37;21.10;;;5.50;99.90;;;;;;5202090;27;20259;-74
2024/04/17 07:46:43;;;;;;;52.90;23.77;;;5.50;99.90;;;;;;5204637;27;20277;-77
2024/04/17 07:49:08;;;;;;;52.57;23.37;;;5.40;99.90;;;;;;5212180;27;20245;-78
2024/04/17 07:51:34;;;;;;;57.53;24.37;;;5.40;99.90;;;;;;5245029;27;20240;-75
2024/04/17 07:54:00;;;;;;;45.77;20.07;;;5.40;99.90;;;;;;5218195;27;20279;-74
2024/04/17 07:56:26;;;;;;;35.53;17.47;;;5.50;99.90;;;;;;5237481;27;20550;-77
2024/04/17 07:58:52;;;;;;;35.17;15.50;;;5.40;99.90;;;;;;5206549;27;20474;-73
2024/04/17 08:01:18;;;;;;;30.87;15.07;;;5.30;99.90;;;;;;5231283;27;20260;-75
2024/04/17 08:03:44;;;;;;;27.90;13.77;;;5.40;99.90;;;;;;5194972;27;20249;-73
2024/04/17 08:06:12;;;;;;;32.13;13.87;;;5.30;99.90;;;;;;5201670;27;20521;-75
2024/04/17 08:08:40;;;;;;;20.07;10.17;;;5.30;99.90;;;;;;5213193;27;20529;-74
2024/04/17 08:11:05;;;;;;;25.73;10.87;;;5.30;99.90;;;;;;5227862;27;20593;-72
2024/04/17 08:13:31;;;;;;;13.23;7.33;;;5.40;99.90;;;;;;5209582;27;20480;-77
2024/04/17 08:15:56;;;;;;;15.60;7.77;;;5.20;99.90;;;;;;5200083;27;20245;-71
2024/04/17 08:18:22;;;;;;;13.97;5.87;;;5.20;99.90;;;;;;5216773;27;20715;-72
2024/04/17 08:20:53;;;;;;;13.60;6.17;;;5.20;99.90;;;;;;5243413;27;20272;-75
2024/04/17 08:23:19;;;;;;;12.93;7.07;;;5.30;99.90;;;;;;5173426;27;20277;-75
2024/04/17 08:25:45;;;;;;;12.93;5.97;;;5.40;99.90;;;;;;5200992;27;20518;-76
2024/04/17 08:28:11;;;;;;;13.43;6.33;;;5.50;99.90;;;;;;5242415;27;20792;-73
2024/04/17 08:30:36;;;;;;;8.00;5.27;;;5.50;99.90;;;;;;5245718;27;20237;-74
2024/04/17 08:33:02;;;;;;;10.83;5.17;;;5.50;99.90;;;;;;5212185;27;20240;-76
2024/04/17 08:35:27;;;;;;;21.17;9.90;;;5.40;99.90;;;;;;5232108;27;20572;-76
2024/04/17 08:37:53;;;;;;;13.57;6.47;;;5.50;99.90;;;;;;5187106;27;20305;-75
2024/04/17 08:40:19;;;;;;;18.50;6.93;;;5.50;99.90;;;;;;5242795;27;20264;-73
2024/04/17 08:42:51;;;;;;;10.23;6.03;;;5.50;99.90;;;;;;5209781;27;20276;-72
2024/04/17 08:45:24;;;;;;;15.53;6.47;;;5.50;99.90;;;;;;5181336;27;20480;-76
2024/04/17 08:47:50;;;;;;;19.67;8.50;;;5.50;99.90;;;;;;5236997;27;20476;-77
2024/04/17 08:50:17;;;;;;;14.73;8.20;;;5.70;99.90;;;;;;5232014;27;20931;-74
2024/04/17 08:52:44;;;;;;;10.77;7.87;;;5.70;99.90;;;;;;5201022;27;20542;-76
2024/04/17 08:55:11;;;;;;;17.57;9.47;;;5.80;99.90;;;;;;5185347;27;20533;-76
2024/04/17 08:57:38;;;;;;;24.67;7.97;;;5.80;99.90;;;;;;5187465;27;20533;-77
2024/04/17 09:00:05;;;;;;;14.47;6.17;;;5.70;99.90;;;;;;5196487;27;20532;-77
2024/04/17 09:02:32;;;;;;;14.73;7.30;;;5.70;99.90;;;;;;5231461;27;20587;-74
2024/04/17 09:04:59;;;;;;;14.37;5.93;;;5.70;99.90;;;;;;5228833;27;20779;-73
2024/04/17 09:07:25;;;;;;;8.50;6.10;;;5.80;99.90;;;;;;5187054;27;20573;-73
2024/04/17 09:09:52;;;;;;;20.07;7.17;;;6.00;99.90;;;;;;5187293;27;20473;-76
2024/04/17 09:12:18;;;;;;;8.83;5.03;;;6.00;99.90;;;;;;5198534;27;20522;-74
2024/04/17 09:14:44;;;;;;;22.40;5.67;;;5.90;99.90;;;;;;5235221;27;20480;-73
2024/04/17 09:17:10;;;;;;;11.03;5.17;;;5.90;99.90;;;;;;5230943;27;20536;-75
2024/04/17 09:19:35;;;;;;;10.53;4.90;;;5.90;99.90;;;;;;5262286;27;20219;-77
2024/04/17 09:22:01;;;;;;;15.27;4.97;;;5.90;99.90;;;;;;5207749;27;20232;-74
2024/04/17 09:24:27;;;;;;;8.10;4.47;;;5.80;99.90;;;;;;5234597;27;20257;-76
2024/04/17 09:26:52;;;;;;;11.03;4.80;;;6.00;99.90;;;;;;5262517;27;20233;-75
2024/04/17 09:29:18;;;;;;;14.30;5.00;;;6.00;99.90;;;;;;5264435;27;20355;-76
2024/04/17 09:31:44;;;;;;;13.13;6.40;;;6.00;99.90;;;;;;5235834;27;20233;-76
2024/04/17 09:34:17;;;;;;;8.13;5.70;;;6.10;99.90;;;;;;5262927;27;20288;-75
2024/04/17 09:36:47;;;;;;;14.57;6.83;;;6.30;99.90;;;;;;5231329;27;20468;-75
2024/04/17 09:39:14;;;;;;;16.90;7.80;;;6.50;99.90;;;;;;5233925;27;20516;-77
2024/04/17 09:41:41;;;;;;;16.47;6.50;;;6.40;99.90;;;;;;5207477;27;20571;-75
2024/04/17 09:44:12;;;;;;;15.93;4.97;;;6.30;99.90;;;;;;5232804;27;20460;-75
2024/04/17 09:46:38;;;;;;;17.90;7.23;;;6.30;99.90;;;;;;5204303;27;20991;-76
2024/04/17 09:49:19;;;;;;;8.83;4.77;;;6.40;99.90;;;;;;5260639;27;20464;-75
2024/04/17 09:51:46;;;;;;;10.87;4.30;;;6.40;99.90;;;;;;5259097;27;20523;-75
2024/04/17 09:54:13;;;;;;;12.83;5.67;;;6.80;99.90;;;;;;5233179;27;20464;-75
2024/04/17 09:56:41;;;;;;;22.80;6.57;;;7.20;99.90;;;;;;5234194;27;20524;-75
2024/04/17 09:59:09;;;;;;;15.07;7.47;;;7.20;99.90;;;;;;5233174;27;20456;-75
2024/04/17 10:01:40;;;;;;;36.73;7.17;;;7.40;99.90;;;;;;5205537;27;20518;-74
2024/04/17 10:04:08;;;;;;;37.97;8.37;;;7.70;99.90;;;;;;5233104;27;20452;-75
2024/04/17 10:06:37;;;;;;;18.67;8.33;;;7.70;99.90;;;;;;5261910;27;20524;-75
2024/04/17 10:09:04;;;;;;;11.07;6.77;;;7.80;99.90;;;;;;5210038;27;20768;-75
2024/04/17 10:11:31;;;;;;;8.97;7.00;;;7.70;99.90;;;;;;5207609;27;20511;-73
2024/04/17 10:13:57;;;;;;;11.57;8.13;;;7.60;99.90;;;;;;5230963;27;20516;-75
2024/04/17 10:16:23;;;;;;;14.40;8.20;;;7.70;99.90;;;;;;5233251;27;20483;-72
2024/04/17 10:18:49;;;;;;;13.53;7.33;;;7.60;99.90;;;;;;5260574;27;20469;-74
2024/04/17 10:21:20;;;;;;;22.53;9.00;;;7.50;99.90;;;;;;5231855;27;20260;-74
2024/04/17 10:23:59;;;;;;;36.83;8.37;;;7.70;99.90;;;;;;5261750;27;20225;-75
2024/04/17 10:26:35;;;;;;;13.27;6.67;;;7.70;99.90;;;;;;5263075;27;20520;-75
2024/04/17 10:29:01;;;;;;;21.90;6.57;;;7.70;99.90;;;;;;5203270;27;20507;-75
2024/04/17 10:31:36;;;;;;;21.77;10.20;;;7.50;99.90;;;;;;5257713;27;20472;-75
2024/04/17 10:34:03;;;;;;;13.33;6.90;;;7.50;99.90;;;;;;5261948;27;20224;-75
2024/04/17 10:36:28;;;;;;;15.07;7.03;;;7.70;99.90;;;;;;5259311;27;20535;-73
2024/04/17 10:38:55;;;;;;;104.53;12.77;;;8.00;99.90;;;;;;5260362;27;20562;-74
2024/04/17 10:41:27;;;;;;;11.27;5.33;;;8.10;99.90;;;;;;5201463;27;20236;-75
2024/04/17 10:43:53;;;;;;;52.93;7.33;;;8.50;99.90;;;;;;5201359;27;20507;-72
2024/04/17 10:46:23;;;;;;;9.90;6.63;;;8.50;99.90;;;;;;5258168;27;20918;-73
2024/04/17 10:48:51;;;;;;;8.80;4.67;;;8.40;99.90;;;;;;5259118;27;20484;-75
2024/04/17 10:51:18;;;;;;;13.10;5.30;;;8.60;99.90;;;;;;5230097;27;20520;-73
2024/04/17 10:53:46;;;;;;;7.70;4.70;;;8.90;99.90;;;;;;5230144;27;20480;-71
2024/04/17 10:56:12;;;;;;;6.37;3.60;;;8.90;99.90;;;;;;5259077;27;20472;-73
2024/04/17 10:58:39;;;;;;;6.80;4.30;;;9.20;99.90;;;;;;5257897;27;20941;-74
2024/04/17 11:01:05;;;;;;;6.53;3.70;;;9.50;99.90;;;;;;5258259;27;20512;-72
2024/04/17 11:03:31;;;;;;;7.10;3.60;;;9.40;99.90;;;;;;5260021;27;20465;-75
2024/04/17 11:05:58;;;;;;;6.17;3.00;;;9.60;99.90;;;;;;5259720;27;20225;-74
2024/04/17 11:08:23;;;;;;;4.20;2.90;;;9.60;99.90;;;;;;5261449;27;20465;-73
2024/04/17 11:10:50;;;;;;;13.97;4.30;;;9.70;99.90;;;;;;5231747;27;20521;-74
2024/04/17 11:13:16;;;;;;;6.83;3.70;;;10.00;99.90;;;;;;5232115;27;20304;-74
2024/04/17 11:15:42;;;;;;;7.07;3.30;;;10.10;99.90;;;;;;5258230;27;20543;-74
2024/04/17 11:18:08;;;;;;;9.13;4.80;;;10.30;99.90;;;;;;5194909;27;20480;-74
2024/04/17 11:20:35;;;;;;;6.77;2.80;;;10.40;99.90;;;;;;5262649;27;20611;-72
2024/04/17 11:23:08;;;;;;;6.57;3.73;;;10.60;99.90;;;;;;5230859;27;20472;-73
2024/04/17 11:25:40;;;;;;;9.00;3.53;;;11.10;99.90;;;;;;5259557;27;20472;-75
2024/04/17 11:28:12;;;;;;;7.70;3.20;;;11.50;99.90;;;;;;5257967;27;20831;-73
2024/04/17 11:30:46;;;;;;;4.73;2.90;;;11.70;99.90;;;;;;5257904;27;20456;-72
2024/04/17 11:33:12;;;;;;;4.83;3.03;;;11.80;99.90;;;;;;5256418;27;20559;-73
2024/04/17 11:35:37;;;;;;;9.17;3.23;;;11.70;99.90;;;;;;5203347;27;20452;-75
2024/04/17 11:38:03;;;;;;;6.57;4.40;;;11.60;99.90;;;;;;5221533;27;20321;-74
2024/04/17 11:40:29;;;;;;;5.95;3.83;;;11.90;99.90;;;;;;5228990;27;20032;-72
2024/04/17 11:42:54;;;;;;;6.20;3.50;;;11.80;99.90;;;;;;5220893;27;20225;-71
2024/04/17 11:45:20;;;;;;;3.53;3.10;;;11.80;99.90;;;;;;5221664;27;20267;-75
2024/04/17 11:47:46;;;;;;;6.10;3.30;;;12.00;99.90;;;;;;5229204;27;20255;-72
2024/04/17 11:50:12;;;;;;;3.13;2.83;;;12.10;99.90;;;;;;5231009;27;20240;-74
2024/04/17 11:52:38;;;;;;;6.10;2.87;;;12.00;99.90;;;;;;5259189;27;20222;-74
2024/04/17 11:55:04;;;;;;;6.33;3.13;;;12.00;99.90;;;;;;5259266;27;20520;-75
2024/04/17 11:57:30;;;;;;;9.00;3.90;;;11.90;99.90;;;;;;5224323;27;20312;-74
2024/04/17 11:59:56;;;;;;;5.70;2.57;;;11.80;99.90;;;;;;5217844;27;20548;-71
2024/04/17 12:02:23;;;;;;;7.80;2.23;;;11.40;99.90;;;;;;5204597;27;20514;-72
2024/04/17 12:04:49;;;;;;;8.17;4.00;;;11.40;99.90;;;;;;5256987;27;20456;-73
2024/04/17 12:07:15;;;;;;;9.47;3.40;;;11.40;99.90;;;;;;5217021;27;20472;-74
2024/04/17 12:09:47;;;;;;;7.63;2.90;;;11.30;99.90;;;;;;5256140;27;20456;-72
2024/04/17 12:12:13;;;;;;;7.70;2.60;;;11.10;99.90;;;;;;5252298;27;20796;-80
2024/04/17 12:14:42;;;;;;;6.73;3.10;;;10.90;99.90;;;;;;5136777;27;20519;-80
2024/04/17 12:17:10;;;;;;;4.53;3.07;;;10.80;99.90;;;;;;5110720;27;20554;-79
2024/04/17 12:19:39;;;;;;;4.83;2.70;;;10.90;99.90;;;;;;5116093;27;20515;-78
2024/04/17 12:22:05;;;;;;;4.77;2.83;;;10.90;99.90;;;;;;5131149;27;20485;-76
2024/04/17 12:27:20;;;;;;;6.23;3.30;;;11.20;99.90;;;;;;5117176;27;20253;-75
2024/04/17 12:29:45;;;;;;;8.77;3.63;;;11.50;99.90;;;;;;5158987;27;20563;-76
2024/04/17 12:32:11;;;;;;;5.90;2.40;;;11.50;99.90;;;;;;5153773;27;20331;-75
2024/04/17 12:34:38;;;;;;;5.07;2.10;;;11.50;99.90;;;;;;5153348;27;20233;-74
2024/04/17 12:37:04;;;;;;;8.93;4.57;;;11.40;99.70;;;;;;5154452;27;20240;-74
2024/04/17 12:39:29;;;;;;;4.57;3.03;;;11.20;99.90;;;;;;5129542;27;20473;-74
2024/04/17 12:41:55;;;;;;;4.67;2.00;;;10.90;99.90;;;;;;5155882;27;20570;-73
2024/04/17 12:44:22;;;;;;;4.13;2.40;;;10.60;99.90;;;;;;5127847;27;20228;-73
2024/04/17 12:46:48;;;;;;;4.80;2.60;;;10.50;99.90;;;;;;5152252;27;20349;-74